sensor_id;sensor_type;location;lat;lon;timestamp;P1;durP1;ratioP1;P2;durP2;ratioP2
35444;SDS011;21562;49.476;6.086;2023-09-18T00:01:39;25.90;;;5.35;;
35444;SDS011;21562;49.476;6.086;2023-09-18T00:04:05;28.20;;;6.28;;
35444;SDS011;21562;49.476;6.086;2023-09-18T00:06:32;23.05;;;5.82;;
35444;SDS011;21562;49.476;6.086;2023-09-18T00:08:58;36.15;;;6.88;;
35444;SDS011;21562;49.476;6.086;2023-09-18T00:11:24;24.95;;;5.95;;
35444;SDS011;21562;49.476;6.086;2023-09-18T00:13:49;20.17;;;5.72;;
35444;SDS011;21562;49.476;6.086;2023-09-18T00:16:15;25.35;;;3.90;;
35444;SDS011;21562;49.476;6.086;2023-09-18T00:18:41;14.00;;;3.08;;
35444;SDS011;21562;49.476;6.086;2023-09-18T00:21:09;18.65;;;2.78;;
35444;SDS011;21562;49.476;6.086;2023-09-18T00:23:35;16.75;;;3.38;;
35444;SDS011;21562;49.476;6.086;2023-09-18T00:26:01;16.90;;;4.22;;
35444;SDS011;21562;49.476;6.086;2023-09-18T00:28:27;23.27;;;4.00;;
35444;SDS011;21562;49.476;6.086;2023-09-18T00:30:53;24.30;;;4.13;;
35444;SDS011;21562;49.476;6.086;2023-09-18T00:33:19;11.57;;;3.42;;
35444;SDS011;21562;49.476;6.086;2023-09-18T00:35:48;20.38;;;3.47;;
35444;SDS011;21562;49.476;6.086;2023-09-18T00:38:15;12.82;;;3.33;;
35444;SDS011;21562;49.476;6.086;2023-09-18T00:40:41;11.43;;;3.17;;
35444;SDS011;21562;49.476;6.086;2023-09-18T00:43:07;11.98;;;2.83;;
35444;SDS011;21562;49.476;6.086;2023-09-18T00:45:34;14.98;;;3.53;;
35444;SDS011;21562;49.476;6.086;2023-09-18T00:48:04;14.52;;;3.20;;
35444;SDS011;21562;49.476;6.086;2023-09-18T00:50:30;18.17;;;4.85;;
35444;SDS011;21562;49.476;6.086;2023-09-18T00:52:56;12.40;;;3.08;;
35444;SDS011;21562;49.476;6.086;2023-09-18T00:55:22;16.60;;;3.65;;
35444;SDS011;21562;49.476;6.086;2023-09-18T00:57:48;16.33;;;2.80;;
35444;SDS011;21562;49.476;6.086;2023-09-18T01:00:14;10.80;;;3.03;;
35444;SDS011;21562;49.476;6.086;2023-09-18T01:02:42;12.90;;;3.03;;
35444;SDS011;21562;49.476;6.086;2023-09-18T01:05:08;8.25;;;2.75;;
35444;SDS011;21562;49.476;6.086;2023-09-18T01:07:34;14.45;;;4.00;;
35444;SDS011;21562;49.476;6.086;2023-09-18T01:09:59;9.25;;;3.08;;
35444;SDS011;21562;49.476;6.086;2023-09-18T01:17:40;16.58;;;3.15;;
35444;SDS011;21562;49.476;6.086;2023-09-18T01:20:09;13.68;;;3.03;;
35444;SDS011;21562;49.476;6.086;2023-09-18T01:22:35;10.70;;;2.90;;
35444;SDS011;21562;49.476;6.086;2023-09-18T01:25:01;16.67;;;3.30;;
35444;SDS011;21562;49.476;6.086;2023-09-18T01:27:27;17.92;;;2.63;;
35444;SDS011;21562;49.476;6.086;2023-09-18T01:29:53;18.55;;;2.92;;
35444;SDS011;21562;49.476;6.086;2023-09-18T01:32:19;9.70;;;2.65;;
35444;SDS011;21562;49.476;6.086;2023-09-18T01:34:46;12.75;;;3.17;;
35444;SDS011;21562;49.476;6.086;2023-09-18T01:37:14;22.63;;;3.60;;
35444;SDS011;21562;49.476;6.086;2023-09-18T01:39:42;13.40;;;3.50;;
35444;SDS011;21562;49.476;6.086;2023-09-18T01:42:10;15.45;;;2.60;;
35444;SDS011;21562;49.476;6.086;2023-09-18T01:44:35;11.80;;;2.45;;
35444;SDS011;21562;49.476;6.086;2023-09-18T01:47:09;10.38;;;2.60;;
35444;SDS011;21562;49.476;6.086;2023-09-18T01:49:38;11.75;;;2.30;;
35444;SDS011;21562;49.476;6.086;2023-09-18T01:52:05;12.70;;;2.55;;
35444;SDS011;21562;49.476;6.086;2023-09-18T01:54:32;13.93;;;2.50;;
35444;SDS011;21562;49.476;6.086;2023-09-18T01:56:59;10.95;;;3.17;;
35444;SDS011;21562;49.476;6.086;2023-09-18T01:59:24;17.15;;;3.92;;
35444;SDS011;21562;49.476;6.086;2023-09-18T02:01:51;11.80;;;2.92;;
35444;SDS011;21562;49.476;6.086;2023-09-18T02:04:17;8.00;;;2.63;;
35444;SDS011;21562;49.476;6.086;2023-09-18T02:06:43;14.35;;;2.78;;
35444;SDS011;21562;49.476;6.086;2023-09-18T02:09:09;10.55;;;3.00;;
35444;SDS011;21562;49.476;6.086;2023-09-18T02:11:38;11.13;;;2.72;;
35444;SDS011;21562;49.476;6.086;2023-09-18T02:14:05;9.20;;;2.78;;
35444;SDS011;21562;49.476;6.086;2023-09-18T02:16:32;10.98;;;2.70;;
35444;SDS011;21562;49.476;6.086;2023-09-18T02:18:58;7.97;;;2.72;;
35444;SDS011;21562;49.476;6.086;2023-09-18T02:21:24;14.73;;;2.92;;
35444;SDS011;21562;49.476;6.086;2023-09-18T02:23:51;16.38;;;2.85;;
35444;SDS011;21562;49.476;6.086;2023-09-18T02:26:17;9.55;;;2.65;;
35444;SDS011;21562;49.476;6.086;2023-09-18T02:28:44;6.47;;;2.53;;
35444;SDS011;21562;49.476;6.086;2023-09-18T02:31:10;7.20;;;2.67;;
35444;SDS011;21562;49.476;6.086;2023-09-18T02:33:36;9.27;;;2.45;;
35444;SDS011;21562;49.476;6.086;2023-09-18T02:36:02;7.72;;;2.08;;
35444;SDS011;21562;49.476;6.086;2023-09-18T02:38:28;5.70;;;1.88;;
35444;SDS011;21562;49.476;6.086;2023-09-18T02:40:55;8.95;;;3.08;;
35444;SDS011;21562;49.476;6.086;2023-09-18T02:43:22;9.43;;;2.17;;
35444;SDS011;21562;49.476;6.086;2023-09-18T02:45:48;9.20;;;2.25;;
35444;SDS011;21562;49.476;6.086;2023-09-18T02:48:14;11.63;;;2.63;;
35444;SDS011;21562;49.476;6.086;2023-09-18T02:50:39;14.05;;;2.72;;
35444;SDS011;21562;49.476;6.086;2023-09-18T02:53:06;8.10;;;2.35;;
35444;SDS011;21562;49.476;6.086;2023-09-18T02:55:33;10.02;;;3.10;;
35444;SDS011;21562;49.476;6.086;2023-09-18T02:57:59;8.13;;;2.28;;
35444;SDS011;21562;49.476;6.086;2023-09-18T03:00:25;11.38;;;2.78;;
35444;SDS011;21562;49.476;6.086;2023-09-18T03:02:50;8.32;;;2.25;;
35444;SDS011;21562;49.476;6.086;2023-09-18T03:05:16;11.70;;;2.20;;
35444;SDS011;21562;49.476;6.086;2023-09-18T03:07:42;11.20;;;3.00;;
35444;SDS011;21562;49.476;6.086;2023-09-18T03:10:09;13.57;;;2.58;;
35444;SDS011;21562;49.476;6.086;2023-09-18T03:12:38;6.82;;;2.42;;
35444;SDS011;21562;49.476;6.086;2023-09-18T03:15:04;10.07;;;2.25;;
35444;SDS011;21562;49.476;6.086;2023-09-18T03:17:31;5.63;;;2.05;;
35444;SDS011;21562;49.476;6.086;2023-09-18T03:19:57;9.98;;;2.95;;
35444;SDS011;21562;49.476;6.086;2023-09-18T03:22:22;8.05;;;2.15;;
35444;SDS011;21562;49.476;6.086;2023-09-18T03:24:48;13.77;;;2.70;;
35444;SDS011;21562;49.476;6.086;2023-09-18T03:27:14;7.38;;;2.10;;
35444;SDS011;21562;49.476;6.086;2023-09-18T03:29:40;8.88;;;2.25;;
35444;SDS011;21562;49.476;6.086;2023-09-18T03:32:05;7.38;;;1.85;;
35444;SDS011;21562;49.476;6.086;2023-09-18T03:34:31;9.43;;;2.00;;
35444;SDS011;21562;49.476;6.086;2023-09-18T03:36:56;6.13;;;1.73;;
35444;SDS011;21562;49.476;6.086;2023-09-18T03:39:22;5.15;;;1.52;;
35444;SDS011;21562;49.476;6.086;2023-09-18T03:41:48;9.77;;;1.95;;
35444;SDS011;21562;49.476;6.086;2023-09-18T03:44:13;8.00;;;1.95;;
35444;SDS011;21562;49.476;6.086;2023-09-18T03:46:39;7.00;;;2.15;;
35444;SDS011;21562;49.476;6.086;2023-09-18T03:49:05;5.00;;;2.00;;
35444;SDS011;21562;49.476;6.086;2023-09-18T03:51:31;6.28;;;1.98;;
35444;SDS011;21562;49.476;6.086;2023-09-18T03:53:57;5.43;;;1.70;;
35444;SDS011;21562;49.476;6.086;2023-09-18T03:56:22;7.13;;;1.67;;
35444;SDS011;21562;49.476;6.086;2023-09-18T03:58:48;6.72;;;1.63;;
35444;SDS011;21562;49.476;6.086;2023-09-18T04:01:17;5.97;;;2.03;;
35444;SDS011;21562;49.476;6.086;2023-09-18T04:03:42;8.55;;;2.20;;
35444;SDS011;21562;49.476;6.086;2023-09-18T04:06:08;11.05;;;2.30;;
35444;SDS011;21562;49.476;6.086;2023-09-18T04:08:33;4.75;;;1.50;;
35444;SDS011;21562;49.476;6.086;2023-09-18T04:10:59;5.82;;;2.15;;
35444;SDS011;21562;49.476;6.086;2023-09-18T04:13:25;5.95;;;1.70;;
35444;SDS011;21562;49.476;6.086;2023-09-18T04:15:51;4.68;;;1.42;;
35444;SDS011;21562;49.476;6.086;2023-09-18T04:18:22;5.47;;;1.77;;
35444;SDS011;21562;49.476;6.086;2023-09-18T04:20:47;4.78;;;2.00;;
35444;SDS011;21562;49.476;6.086;2023-09-18T04:23:20;4.28;;;1.67;;
35444;SDS011;21562;49.476;6.086;2023-09-18T04:25:47;6.60;;;1.73;;
35444;SDS011;21562;49.476;6.086;2023-09-18T04:28:13;7.10;;;1.45;;
35444;SDS011;21562;49.476;6.086;2023-09-18T04:30:39;4.65;;;1.63;;
35444;SDS011;21562;49.476;6.086;2023-09-18T04:33:05;9.25;;;1.65;;
35444;SDS011;21562;49.476;6.086;2023-09-18T04:35:31;4.93;;;1.40;;
35444;SDS011;21562;49.476;6.086;2023-09-18T04:37:58;7.60;;;2.55;;
35444;SDS011;21562;49.476;6.086;2023-09-18T04:40:24;9.35;;;2.17;;
35444;SDS011;21562;49.476;6.086;2023-09-18T04:42:51;6.88;;;1.65;;
35444;SDS011;21562;49.476;6.086;2023-09-18T04:45:17;6.60;;;1.50;;
35444;SDS011;21562;49.476;6.086;2023-09-18T04:47:43;16.05;;;1.92;;
35444;SDS011;21562;49.476;6.086;2023-09-18T04:50:09;8.13;;;1.70;;
35444;SDS011;21562;49.476;6.086;2023-09-18T04:52:35;7.05;;;1.75;;
35444;SDS011;21562;49.476;6.086;2023-09-18T04:55:01;5.13;;;2.03;;
35444;SDS011;21562;49.476;6.086;2023-09-18T04:57:26;5.35;;;1.45;;
35444;SDS011;21562;49.476;6.086;2023-09-18T04:59:52;7.43;;;1.88;;
35444;SDS011;21562;49.476;6.086;2023-09-18T05:02:18;5.30;;;1.63;;
35444;SDS011;21562;49.476;6.086;2023-09-18T05:04:43;5.88;;;1.77;;
35444;SDS011;21562;49.476;6.086;2023-09-18T05:07:09;7.15;;;1.20;;
35444;SDS011;21562;49.476;6.086;2023-09-18T05:09:34;5.95;;;1.48;;
35444;SDS011;21562;49.476;6.086;2023-09-18T05:12:00;4.63;;;1.50;;
35444;SDS011;21562;49.476;6.086;2023-09-18T05:14:28;4.22;;;1.50;;
35444;SDS011;21562;49.476;6.086;2023-09-18T05:16:54;4.55;;;1.65;;
35444;SDS011;21562;49.476;6.086;2023-09-18T05:19:19;4.22;;;1.35;;
35444;SDS011;21562;49.476;6.086;2023-09-18T05:21:45;6.40;;;1.50;;
35444;SDS011;21562;49.476;6.086;2023-09-18T05:24:11;8.00;;;1.65;;
35444;SDS011;21562;49.476;6.086;2023-09-18T05:26:37;6.18;;;1.35;;
35444;SDS011;21562;49.476;6.086;2023-09-18T05:29:02;5.20;;;1.60;;
35444;SDS011;21562;49.476;6.086;2023-09-18T05:31:28;4.60;;;1.20;;
35444;SDS011;21562;49.476;6.086;2023-09-18T05:33:54;5.85;;;1.55;;
35444;SDS011;21562;49.476;6.086;2023-09-18T05:36:19;3.95;;;1.52;;
35444;SDS011;21562;49.476;6.086;2023-09-18T05:38:45;6.32;;;1.65;;
35444;SDS011;21562;49.476;6.086;2023-09-18T05:41:11;8.90;;;1.38;;
35444;SDS011;21562;49.476;6.086;2023-09-18T05:43:36;5.55;;;1.88;;
35444;SDS011;21562;49.476;6.086;2023-09-18T05:46:02;7.00;;;1.58;;
35444;SDS011;21562;49.476;6.086;2023-09-18T05:48:27;5.55;;;1.17;;
35444;SDS011;21562;49.476;6.086;2023-09-18T05:50:53;8.70;;;1.80;;
35444;SDS011;21562;49.476;6.086;2023-09-18T05:53:19;5.68;;;1.60;;
35444;SDS011;21562;49.476;6.086;2023-09-18T05:55:46;3.80;;;1.60;;
35444;SDS011;21562;49.476;6.086;2023-09-18T05:58:12;8.30;;;1.73;;
35444;SDS011;21562;49.476;6.086;2023-09-18T06:00:39;8.55;;;2.08;;
35444;SDS011;21562;49.476;6.086;2023-09-18T06:03:04;4.40;;;1.38;;
35444;SDS011;21562;49.476;6.086;2023-09-18T06:05:31;4.95;;;1.60;;
35444;SDS011;21562;49.476;6.086;2023-09-18T06:07:58;5.65;;;1.08;;
35444;SDS011;21562;49.476;6.086;2023-09-18T06:10:25;6.10;;;1.70;;
35444;SDS011;21562;49.476;6.086;2023-09-18T06:12:50;8.45;;;2.05;;
35444;SDS011;21562;49.476;6.086;2023-09-18T06:15:16;6.00;;;1.52;;
35444;SDS011;21562;49.476;6.086;2023-09-18T06:17:42;5.32;;;2.22;;
35444;SDS011;21562;49.476;6.086;2023-09-18T06:20:09;6.18;;;1.38;;
35444;SDS011;21562;49.476;6.086;2023-09-18T06:22:37;6.75;;;2.47;;
35444;SDS011;21562;49.476;6.086;2023-09-18T06:25:03;8.68;;;1.70;;
35444;SDS011;21562;49.476;6.086;2023-09-18T06:27:35;3.92;;;1.63;;
35444;SDS011;21562;49.476;6.086;2023-09-18T06:30:02;8.27;;;2.13;;
35444;SDS011;21562;49.476;6.086;2023-09-18T06:32:28;5.55;;;1.77;;
35444;SDS011;21562;49.476;6.086;2023-09-18T06:34:54;10.70;;;1.63;;
35444;SDS011;21562;49.476;6.086;2023-09-18T06:37:22;7.78;;;1.77;;
35444;SDS011;21562;49.476;6.086;2023-09-18T06:39:48;5.38;;;1.70;;
35444;SDS011;21562;49.476;6.086;2023-09-18T06:42:13;5.50;;;1.23;;
35444;SDS011;21562;49.476;6.086;2023-09-18T06:44:39;6.38;;;1.10;;
35444;SDS011;21562;49.476;6.086;2023-09-18T06:47:05;8.55;;;1.67;;
35444;SDS011;21562;49.476;6.086;2023-09-18T06:49:30;7.18;;;1.70;;
35444;SDS011;21562;49.476;6.086;2023-09-18T06:51:56;7.65;;;1.95;;
35444;SDS011;21562;49.476;6.086;2023-09-18T06:54:21;5.68;;;1.42;;
35444;SDS011;21562;49.476;6.086;2023-09-18T06:56:47;6.82;;;2.08;;
35444;SDS011;21562;49.476;6.086;2023-09-18T06:59:13;5.28;;;1.60;;
35444;SDS011;21562;49.476;6.086;2023-09-18T07:01:39;5.20;;;2.13;;
35444;SDS011;21562;49.476;6.086;2023-09-18T07:04:06;5.13;;;1.00;;
35444;SDS011;21562;49.476;6.086;2023-09-18T07:06:32;4.60;;;1.65;;
35444;SDS011;21562;49.476;6.086;2023-09-18T07:08:58;7.60;;;1.40;;
35444;SDS011;21562;49.476;6.086;2023-09-18T07:11:24;11.55;;;1.70;;
35444;SDS011;21562;49.476;6.086;2023-09-18T07:13:50;9.32;;;1.60;;
35444;SDS011;21562;49.476;6.086;2023-09-18T07:16:15;6.53;;;1.40;;
35444;SDS011;21562;49.476;6.086;2023-09-18T07:18:41;10.73;;;1.40;;
35444;SDS011;21562;49.476;6.086;2023-09-18T07:21:07;6.45;;;1.23;;
35444;SDS011;21562;49.476;6.086;2023-09-18T07:23:33;13.20;;;2.50;;
35444;SDS011;21562;49.476;6.086;2023-09-18T07:26:02;5.45;;;1.70;;
35444;SDS011;21562;49.476;6.086;2023-09-18T07:28:28;6.20;;;1.50;;
35444;SDS011;21562;49.476;6.086;2023-09-18T07:30:53;8.23;;;1.38;;
35444;SDS011;21562;49.476;6.086;2023-09-18T07:33:19;6.07;;;1.40;;
35444;SDS011;21562;49.476;6.086;2023-09-18T07:35:46;3.83;;;1.42;;
35444;SDS011;21562;49.476;6.086;2023-09-18T07:38:13;13.63;;;1.52;;
35444;SDS011;21562;49.476;6.086;2023-09-18T07:40:39;9.80;;;1.45;;
35444;SDS011;21562;49.476;6.086;2023-09-18T07:43:04;7.82;;;1.80;;
35444;SDS011;21562;49.476;6.086;2023-09-18T07:45:30;2.72;;;1.63;;
35444;SDS011;21562;49.476;6.086;2023-09-18T07:47:56;6.57;;;1.58;;
35444;SDS011;21562;49.476;6.086;2023-09-18T07:50:21;5.63;;;1.48;;
35444;SDS011;21562;49.476;6.086;2023-09-18T07:52:47;3.60;;;1.17;;
35444;SDS011;21562;49.476;6.086;2023-09-18T07:55:13;4.13;;;1.58;;
35444;SDS011;21562;49.476;6.086;2023-09-18T07:57:38;8.45;;;1.63;;
35444;SDS011;21562;49.476;6.086;2023-09-18T08:00:05;5.20;;;1.70;;
35444;SDS011;21562;49.476;6.086;2023-09-18T08:02:36;7.15;;;1.42;;
35444;SDS011;21562;49.476;6.086;2023-09-18T08:05:02;12.20;;;1.95;;
35444;SDS011;21562;49.476;6.086;2023-09-18T08:07:29;7.82;;;1.70;;
35444;SDS011;21562;49.476;6.086;2023-09-18T08:09:55;8.70;;;1.45;;
35444;SDS011;21562;49.476;6.086;2023-09-18T08:12:22;6.97;;;1.88;;
35444;SDS011;21562;49.476;6.086;2023-09-18T08:14:48;6.78;;;1.60;;
35444;SDS011;21562;49.476;6.086;2023-09-18T08:17:15;6.80;;;1.63;;
35444;SDS011;21562;49.476;6.086;2023-09-18T08:19:41;5.22;;;1.30;;
35444;SDS011;21562;49.476;6.086;2023-09-18T08:22:07;5.15;;;1.35;;
35444;SDS011;21562;49.476;6.086;2023-09-18T08:24:33;13.40;;;2.40;;
35444;SDS011;21562;49.476;6.086;2023-09-18T08:26:58;4.63;;;1.45;;
35444;SDS011;21562;49.476;6.086;2023-09-18T08:29:24;9.18;;;1.70;;
35444;SDS011;21562;49.476;6.086;2023-09-18T08:31:50;5.55;;;1.40;;
35444;SDS011;21562;49.476;6.086;2023-09-18T08:34:16;3.35;;;1.27;;
35444;SDS011;21562;49.476;6.086;2023-09-18T08:36:41;5.97;;;1.77;;
35444;SDS011;21562;49.476;6.086;2023-09-18T08:39:07;7.30;;;1.45;;
35444;SDS011;21562;49.476;6.086;2023-09-18T08:41:33;9.23;;;1.58;;
35444;SDS011;21562;49.476;6.086;2023-09-18T08:44:03;6.00;;;1.83;;
35444;SDS011;21562;49.476;6.086;2023-09-18T08:46:30;6.72;;;2.00;;
35444;SDS011;21562;49.476;6.086;2023-09-18T08:48:59;7.13;;;1.67;;
35444;SDS011;21562;49.476;6.086;2023-09-18T08:51:25;4.25;;;1.33;;
35444;SDS011;21562;49.476;6.086;2023-09-18T08:53:52;5.60;;;1.20;;
35444;SDS011;21562;49.476;6.086;2023-09-18T08:56:19;4.38;;;1.25;;
35444;SDS011;21562;49.476;6.086;2023-09-18T08:58:46;7.53;;;1.67;;
35444;SDS011;21562;49.476;6.086;2023-09-18T09:01:21;8.10;;;2.58;;
35444;SDS011;21562;49.476;6.086;2023-09-18T09:03:52;4.05;;;1.23;;
35444;SDS011;21562;49.476;6.086;2023-09-18T09:06:18;5.97;;;1.08;;
35444;SDS011;21562;49.476;6.086;2023-09-18T09:08:44;7.82;;;1.40;;
35444;SDS011;21562;49.476;6.086;2023-09-18T09:11:09;2.60;;;1.17;;
35444;SDS011;21562;49.476;6.086;2023-09-18T09:13:35;4.32;;;1.45;;
35444;SDS011;21562;49.476;6.086;2023-09-18T09:16:01;7.50;;;1.90;;
35444;SDS011;21562;49.476;6.086;2023-09-18T09:18:28;5.68;;;1.73;;
35444;SDS011;21562;49.476;6.086;2023-09-18T09:20:57;12.88;;;3.33;;
35444;SDS011;21562;49.476;6.086;2023-09-18T09:23:29;5.05;;;1.85;;
35444;SDS011;21562;49.476;6.086;2023-09-18T09:26:14;11.07;;;2.78;;
35444;SDS011;21562;49.476;6.086;2023-09-18T09:28:42;6.53;;;2.25;;
35444;SDS011;21562;49.476;6.086;2023-09-18T09:31:08;5.43;;;1.75;;
35444;SDS011;21562;49.476;6.086;2023-09-18T09:33:35;4.82;;;1.40;;
35444;SDS011;21562;49.476;6.086;2023-09-18T09:36:04;3.67;;;1.50;;
35444;SDS011;21562;49.476;6.086;2023-09-18T09:38:30;5.25;;;1.58;;
35444;SDS011;21562;49.476;6.086;2023-09-18T09:40:58;7.80;;;2.00;;
35444;SDS011;21562;49.476;6.086;2023-09-18T09:43:29;8.48;;;1.88;;
35444;SDS011;21562;49.476;6.086;2023-09-18T09:45:58;7.38;;;1.85;;
35444;SDS011;21562;49.476;6.086;2023-09-18T09:48:24;8.15;;;1.77;;
35444;SDS011;21562;49.476;6.086;2023-09-18T09:50:50;5.40;;;1.63;;
35444;SDS011;21562;49.476;6.086;2023-09-18T09:53:18;4.80;;;1.80;;
35444;SDS011;21562;49.476;6.086;2023-09-18T09:55:44;4.03;;;1.50;;
35444;SDS011;21562;49.476;6.086;2023-09-18T09:58:10;5.43;;;1.85;;
35444;SDS011;21562;49.476;6.086;2023-09-18T10:00:49;8.80;;;1.77;;
35444;SDS011;21562;49.476;6.086;2023-09-18T10:03:18;6.28;;;1.77;;
35444;SDS011;21562;49.476;6.086;2023-09-18T10:05:46;13.90;;;2.10;;
35444;SDS011;21562;49.476;6.086;2023-09-18T10:08:17;13.77;;;2.13;;
35444;SDS011;21562;49.476;6.086;2023-09-18T10:10:47;11.27;;;2.35;;
35444;SDS011;21562;49.476;6.086;2023-09-18T10:16:11;5.55;;;1.60;;
35444;SDS011;21562;49.476;6.086;2023-09-18T10:21:15;13.40;;;1.75;;
35444;SDS011;21562;49.476;6.086;2023-09-18T10:26:35;4.22;;;2.03;;
35444;SDS011;21562;49.476;6.086;2023-09-18T10:29:08;3.13;;;1.73;;
35444;SDS011;21562;49.476;6.086;2023-09-18T10:31:37;3.28;;;1.42;;
35444;SDS011;21562;49.476;6.086;2023-09-18T10:34:06;7.25;;;1.58;;
35444;SDS011;21562;49.476;6.086;2023-09-18T10:36:32;8.18;;;1.42;;
35444;SDS011;21562;49.476;6.086;2023-09-18T10:38:59;6.10;;;1.63;;
35444;SDS011;21562;49.476;6.086;2023-09-18T10:41:25;10.35;;;3.17;;
35444;SDS011;21562;49.476;6.086;2023-09-18T10:43:53;9.27;;;1.90;;
35444;SDS011;21562;49.476;6.086;2023-09-18T10:46:22;6.07;;;1.38;;
35444;SDS011;21562;49.476;6.086;2023-09-18T10:48:50;4.38;;;1.30;;
35444;SDS011;21562;49.476;6.086;2023-09-18T10:51:19;5.78;;;1.67;;
35444;SDS011;21562;49.476;6.086;2023-09-18T10:53:47;5.78;;;1.67;;
35444;SDS011;21562;49.476;6.086;2023-09-18T10:56:16;4.40;;;1.50;;
35444;SDS011;21562;49.476;6.086;2023-09-18T10:58:42;3.95;;;1.55;;
35444;SDS011;21562;49.476;6.086;2023-09-18T11:01:11;5.65;;;1.95;;
35444;SDS011;21562;49.476;6.086;2023-09-18T11:03:37;5.03;;;1.75;;
35444;SDS011;21562;49.476;6.086;2023-09-18T11:08:34;3.88;;;1.60;;
35444;SDS011;21562;49.476;6.086;2023-09-18T11:11:09;2.63;;;1.30;;
35444;SDS011;21562;49.476;6.086;2023-09-18T11:13:43;4.60;;;1.52;;
35444;SDS011;21562;49.476;6.086;2023-09-18T11:18:51;5.45;;;1.60;;
35444;SDS011;21562;49.476;6.086;2023-09-18T11:21:23;2.47;;;1.65;;
35444;SDS011;21562;49.476;6.086;2023-09-18T11:26:29;7.10;;;2.13;;
35444;SDS011;21562;49.476;6.086;2023-09-18T11:29:06;8.75;;;1.88;;
35444;SDS011;21562;49.476;6.086;2023-09-18T11:31:43;4.68;;;1.90;;
35444;SDS011;21562;49.476;6.086;2023-09-18T11:34:29;6.22;;;1.73;;
35444;SDS011;21562;49.476;6.086;2023-09-18T11:37:19;3.03;;;1.45;;
35444;SDS011;21562;49.476;6.086;2023-09-18T11:39:46;3.78;;;1.67;;
35444;SDS011;21562;49.476;6.086;2023-09-18T11:42:17;5.28;;;2.38;;
35444;SDS011;21562;49.476;6.086;2023-09-18T11:44:52;7.47;;;1.98;;
35444;SDS011;21562;49.476;6.086;2023-09-18T11:47:18;5.68;;;2.08;;
35444;SDS011;21562;49.476;6.086;2023-09-18T11:52:27;5.80;;;1.77;;
35444;SDS011;21562;49.476;6.086;2023-09-18T11:54:55;3.42;;;1.88;;
35444;SDS011;21562;49.476;6.086;2023-09-18T11:57:22;6.47;;;1.60;;
35444;SDS011;21562;49.476;6.086;2023-09-18T11:59:49;7.32;;;1.75;;
35444;SDS011;21562;49.476;6.086;2023-09-18T12:04:53;3.85;;;1.55;;
35444;SDS011;21562;49.476;6.086;2023-09-18T12:07:22;4.68;;;1.52;;
35444;SDS011;21562;49.476;6.086;2023-09-18T12:09:49;6.93;;;2.47;;
35444;SDS011;21562;49.476;6.086;2023-09-18T12:12:15;10.40;;;2.13;;
35444;SDS011;21562;49.476;6.086;2023-09-18T12:14:42;2.20;;;1.42;;
35444;SDS011;21562;49.476;6.086;2023-09-18T12:17:09;3.45;;;1.60;;
35444;SDS011;21562;49.476;6.086;2023-09-18T12:19:49;4.25;;;1.83;;
35444;SDS011;21562;49.476;6.086;2023-09-18T12:22:29;4.68;;;1.30;;
35444;SDS011;21562;49.476;6.086;2023-09-18T12:25:09;7.55;;;2.22;;
35444;SDS011;21562;49.476;6.086;2023-09-18T12:27:42;6.47;;;1.55;;
35444;SDS011;21562;49.476;6.086;2023-09-18T12:30:08;4.82;;;1.42;;
35444;SDS011;21562;49.476;6.086;2023-09-18T12:32:37;7.30;;;1.70;;
35444;SDS011;21562;49.476;6.086;2023-09-18T12:35:05;5.32;;;1.40;;
35444;SDS011;21562;49.476;6.086;2023-09-18T12:37:35;2.50;;;1.00;;
35444;SDS011;21562;49.476;6.086;2023-09-18T12:40:06;4.10;;;1.52;;
35444;SDS011;21562;49.476;6.086;2023-09-18T12:42:36;3.15;;;1.23;;
35444;SDS011;21562;49.476;6.086;2023-09-18T12:45:07;2.85;;;1.48;;
35444;SDS011;21562;49.476;6.086;2023-09-18T12:47:33;2.83;;;1.40;;
35444;SDS011;21562;49.476;6.086;2023-09-18T12:50:03;5.30;;;1.30;;
35444;SDS011;21562;49.476;6.086;2023-09-18T12:52:29;3.75;;;1.50;;
35444;SDS011;21562;49.476;6.086;2023-09-18T12:54:57;4.10;;;1.80;;
35444;SDS011;21562;49.476;6.086;2023-09-18T12:57:24;3.60;;;1.52;;
35444;SDS011;21562;49.476;6.086;2023-09-18T12:59:50;6.10;;;1.52;;
35444;SDS011;21562;49.476;6.086;2023-09-18T13:02:19;6.38;;;1.63;;
35444;SDS011;21562;49.476;6.086;2023-09-18T13:07:44;3.33;;;1.50;;
35444;SDS011;21562;49.476;6.086;2023-09-18T13:10:10;3.75;;;1.55;;
35444;SDS011;21562;49.476;6.086;2023-09-18T13:12:42;5.20;;;1.70;;
35444;SDS011;21562;49.476;6.086;2023-09-18T13:15:24;7.43;;;2.40;;
35444;SDS011;21562;49.476;6.086;2023-09-18T13:17:52;4.35;;;1.55;;
35444;SDS011;21562;49.476;6.086;2023-09-18T13:20:23;3.20;;;1.55;;
35444;SDS011;21562;49.476;6.086;2023-09-18T13:22:54;3.80;;;0.95;;
35444;SDS011;21562;49.476;6.086;2023-09-18T13:25:39;4.43;;;1.25;;
35444;SDS011;21562;49.476;6.086;2023-09-18T13:28:09;7.55;;;1.30;;
35444;SDS011;21562;49.476;6.086;2023-09-18T13:30:38;5.50;;;1.88;;
35444;SDS011;21562;49.476;6.086;2023-09-18T13:33:10;3.28;;;1.23;;
35444;SDS011;21562;49.476;6.086;2023-09-18T13:35:39;9.25;;;1.92;;
35444;SDS011;21562;49.476;6.086;2023-09-18T13:38:06;14.75;;;1.98;;
35444;SDS011;21562;49.476;6.086;2023-09-18T13:40:33;5.35;;;1.25;;
35444;SDS011;21562;49.476;6.086;2023-09-18T13:43:01;4.20;;;1.50;;
35444;SDS011;21562;49.476;6.086;2023-09-18T13:45:29;4.53;;;1.48;;
35444;SDS011;21562;49.476;6.086;2023-09-18T13:47:55;2.90;;;1.38;;
35444;SDS011;21562;49.476;6.086;2023-09-18T13:50:20;4.57;;;1.35;;
35444;SDS011;21562;49.476;6.086;2023-09-18T13:52:46;6.32;;;1.63;;
35444;SDS011;21562;49.476;6.086;2023-09-18T13:55:12;4.40;;;1.35;;
35444;SDS011;21562;49.476;6.086;2023-09-18T13:57:37;5.05;;;1.30;;
35444;SDS011;21562;49.476;6.086;2023-09-18T14:00:06;5.03;;;1.58;;
35444;SDS011;21562;49.476;6.086;2023-09-18T14:02:35;5.82;;;1.63;;
35444;SDS011;21562;49.476;6.086;2023-09-18T14:05:01;4.22;;;1.55;;
35444;SDS011;21562;49.476;6.086;2023-09-18T14:07:28;3.67;;;1.35;;
35444;SDS011;21562;49.476;6.086;2023-09-18T14:09:54;5.22;;;1.33;;
35444;SDS011;21562;49.476;6.086;2023-09-18T14:12:20;6.60;;;1.48;;
35444;SDS011;21562;49.476;6.086;2023-09-18T14:14:46;5.05;;;1.83;;
35444;SDS011;21562;49.476;6.086;2023-09-18T14:17:11;3.22;;;1.23;;
35444;SDS011;21562;49.476;6.086;2023-09-18T14:19:37;4.20;;;1.40;;
35444;SDS011;21562;49.476;6.086;2023-09-18T14:22:04;9.10;;;1.98;;
35444;SDS011;21562;49.476;6.086;2023-09-18T14:24:30;5.50;;;1.30;;
35444;SDS011;21562;49.476;6.086;2023-09-18T14:26:59;11.18;;;1.88;;
35444;SDS011;21562;49.476;6.086;2023-09-18T14:29:28;3.75;;;1.30;;
35444;SDS011;21562;49.476;6.086;2023-09-18T14:31:58;3.72;;;1.50;;
35444;SDS011;21562;49.476;6.086;2023-09-18T14:34:24;5.97;;;1.50;;
35444;SDS011;21562;49.476;6.086;2023-09-18T14:36:50;4.25;;;1.10;;
35444;SDS011;21562;49.476;6.086;2023-09-18T14:39:15;2.60;;;1.05;;
35444;SDS011;21562;49.476;6.086;2023-09-18T14:41:41;3.40;;;1.63;;
35444;SDS011;21562;49.476;6.086;2023-09-18T14:44:07;3.65;;;1.67;;
35444;SDS011;21562;49.476;6.086;2023-09-18T14:46:34;6.32;;;1.17;;
35444;SDS011;21562;49.476;6.086;2023-09-18T14:49:02;4.40;;;1.52;;
35444;SDS011;21562;49.476;6.086;2023-09-18T14:51:28;7.85;;;1.52;;
35444;SDS011;21562;49.476;6.086;2023-09-18T14:53:54;5.78;;;2.17;;
35444;SDS011;21562;49.476;6.086;2023-09-18T14:56:20;8.68;;;1.70;;
35444;SDS011;21562;49.476;6.086;2023-09-18T14:58:46;6.30;;;1.95;;
35444;SDS011;21562;49.476;6.086;2023-09-18T15:01:12;4.25;;;1.75;;
35444;SDS011;21562;49.476;6.086;2023-09-18T15:03:38;8.45;;;1.70;;
35444;SDS011;21562;49.476;6.086;2023-09-18T15:06:04;4.15;;;1.65;;
35444;SDS011;21562;49.476;6.086;2023-09-18T15:08:32;4.88;;;1.65;;
35444;SDS011;21562;49.476;6.086;2023-09-18T15:10:58;5.75;;;1.52;;
35444;SDS011;21562;49.476;6.086;2023-09-18T15:13:24;4.78;;;1.50;;
35444;SDS011;21562;49.476;6.086;2023-09-18T15:15:49;5.60;;;1.50;;